<?xml version="1.0" encoding="UTF-8" standalone="no" ?>
<gpx xmlns="http://www.topografix.com/GPX/1/1" xmlns:xsi="http://www.w3.org/2001/XMLSchema-instance" xsi:schemaLocation="http://www.topografix.com/GPX/1/1 http://www.topografix.com/GPX/1/1/gpx.xsd" version="1.1" creator="VisuGPX - https://www.visugpx.com">
  <metadata>
    <name>Ault et bois de Cise</name>
    <desc><![CDATA[Randonnée de 7km par les falaises]]></desc>
  </metadata>
  <trk>
    <name><![CDATA[Ault et Bois de Cise_R]]></name>
    <trkseg>
      <trkpt lat="50.10192" lon="1.44563">
        <ele>26.57</ele>
        <time>2013-04-30T11:56:07Z</time>
      </trkpt>
      <trkpt lat="50.10181" lon="1.44569">
        <ele>26.09</ele>
        <time>2013-04-30T11:56:24Z</time>
      </trkpt>
      <trkpt lat="50.10171" lon="1.44562">
        <ele>25.61</ele>
        <time>2013-04-30T11:56:40Z</time>
      </trkpt>
      <trkpt lat="50.10165" lon="1.44556">
        <ele>25.61</ele>
        <time>2013-04-30T11:56:47Z</time>
      </trkpt>
      <trkpt lat="50.10159" lon="1.44551">
        <ele>26.57</ele>
        <time>2013-04-30T11:56:53Z</time>
      </trkpt>
      <trkpt lat="50.10149" lon="1.44541">
        <ele>26.57</ele>
        <time>2013-04-30T11:57:05Z</time>
      </trkpt>
      <trkpt lat="50.1014" lon="1.44514">
        <ele>27.53</ele>
        <time>2013-04-30T11:57:22Z</time>
      </trkpt>
      <trkpt lat="50.10133" lon="1.44503">
        <ele>27.53</ele>
        <time>2013-04-30T11:57:30Z</time>
      </trkpt>
      <trkpt lat="50.10124" lon="1.4449">
        <ele>28.02</ele>
        <time>2013-04-30T11:57:46Z</time>
      </trkpt>
      <trkpt lat="50.10122" lon="1.44488">
        <ele>28.02</ele>
        <time>2013-04-30T11:57:48Z</time>
      </trkpt>
      <trkpt lat="50.10117" lon="1.44486">
        <ele>28.02</ele>
        <time>2013-04-30T11:57:53Z</time>
      </trkpt>
      <trkpt lat="50.10108" lon="1.44481">
        <ele>28.5</ele>
        <time>2013-04-30T11:58:03Z</time>
      </trkpt>
      <trkpt lat="50.10094" lon="1.4447">
        <ele>28.98</ele>
        <time>2013-04-30T11:58:18Z</time>
      </trkpt>
      <trkpt lat="50.10082" lon="1.44459">
        <ele>31.38</ele>
        <time>2013-04-30T11:58:35Z</time>
      </trkpt>
      <trkpt lat="50.10066" lon="1.44458">
        <ele>32.82</ele>
        <time>2013-04-30T11:58:51Z</time>
      </trkpt>
      <trkpt lat="50.10062" lon="1.44466">
        <ele>34.26</ele>
        <time>2013-04-30T11:59:02Z</time>
      </trkpt>
      <trkpt lat="50.10051" lon="1.44491">
        <ele>35.71</ele>
        <time>2013-04-30T11:59:20Z</time>
      </trkpt>
      <trkpt lat="50.10043" lon="1.44488">
        <ele>37.63</ele>
        <time>2013-04-30T11:59:31Z</time>
      </trkpt>
      <trkpt lat="50.10047" lon="1.44463">
        <ele>40.51</ele>
        <time>2013-04-30T11:59:49Z</time>
      </trkpt>
      <trkpt lat="50.10042" lon="1.4445">
        <ele>41.47</ele>
        <time>2013-04-30T12:00:03Z</time>
      </trkpt>
      <trkpt lat="50.10039" lon="1.44443">
        <ele>42.92</ele>
        <time>2013-04-30T12:00:09Z</time>
      </trkpt>
      <trkpt lat="50.10034" lon="1.44434">
        <ele>44.84</ele>
        <time>2013-04-30T12:00:22Z</time>
      </trkpt>
      <trkpt lat="50.10026" lon="1.44419">
        <ele>47.72</ele>
        <time>2013-04-30T12:00:36Z</time>
      </trkpt>
      <trkpt lat="50.10018" lon="1.444">
        <ele>51.09</ele>
        <time>2013-04-30T12:00:52Z</time>
      </trkpt>
      <trkpt lat="50.1001" lon="1.44401">
        <ele>51.57</ele>
        <time>2013-04-30T12:01:01Z</time>
      </trkpt>
      <trkpt lat="50.09999" lon="1.44406">
        <ele>53.01</ele>
        <time>2013-04-30T12:01:15Z</time>
      </trkpt>
      <trkpt lat="50.09995" lon="1.44405">
        <ele>53.97</ele>
        <time>2013-04-30T12:01:25Z</time>
      </trkpt>
      <trkpt lat="50.09994" lon="1.44404">
        <ele>53.97</ele>
        <time>2013-04-30T12:01:27Z</time>
      </trkpt>
      <trkpt lat="50.0999" lon="1.44401">
        <ele>54.93</ele>
        <time>2013-04-30T12:01:31Z</time>
      </trkpt>
      <trkpt lat="50.0998" lon="1.44386">
        <ele>57.34</ele>
        <time>2013-04-30T12:01:46Z</time>
      </trkpt>
      <trkpt lat="50.09977" lon="1.44383">
        <ele>60.22</ele>
        <time>2013-04-30T12:01:58Z</time>
      </trkpt>
      <trkpt lat="50.09973" lon="1.44378">
        <ele>62.14</ele>
        <time>2013-04-30T12:02:11Z</time>
      </trkpt>
      <trkpt lat="50.09974" lon="1.4435">
        <ele>62.62</ele>
        <time>2013-04-30T12:02:27Z</time>
      </trkpt>
      <trkpt lat="50.09975" lon="1.44335">
        <ele>63.1</ele>
        <time>2013-04-30T12:02:37Z</time>
      </trkpt>
      <trkpt lat="50.09975" lon="1.44325">
        <ele>63.1</ele>
        <time>2013-04-30T12:02:44Z</time>
      </trkpt>
      <trkpt lat="50.09981" lon="1.44307">
        <ele>63.58</ele>
        <time>2013-04-30T12:02:58Z</time>
      </trkpt>
      <trkpt lat="50.09982" lon="1.44311">
        <ele>63.58</ele>
        <time>2013-04-30T12:03:17Z</time>
      </trkpt>
      <trkpt lat="50.09981" lon="1.44308">
        <ele>63.58</ele>
        <time>2013-04-30T12:03:20Z</time>
      </trkpt>
      <trkpt lat="50.09975" lon="1.44284">
        <ele>66.47</ele>
        <time>2013-04-30T12:03:36Z</time>
      </trkpt>
      <trkpt lat="50.09967" lon="1.44267">
        <ele>68.87</ele>
        <time>2013-04-30T12:03:51Z</time>
      </trkpt>
      <trkpt lat="50.09967" lon="1.44267">
        <ele>69.35</ele>
        <time>2013-04-30T12:03:52Z</time>
      </trkpt>
      <trkpt lat="50.0996" lon="1.4425">
        <ele>67.43</ele>
        <time>2013-04-30T12:04:05Z</time>
      </trkpt>
      <trkpt lat="50.09956" lon="1.44243">
        <ele>68.39</ele>
        <time>2013-04-30T12:04:10Z</time>
      </trkpt>
      <trkpt lat="50.09942" lon="1.44235">
        <ele>69.83</ele>
        <time>2013-04-30T12:04:26Z</time>
      </trkpt>
      <trkpt lat="50.09942" lon="1.44233">
        <ele>69.83</ele>
        <time>2013-04-30T12:04:27Z</time>
      </trkpt>
      <trkpt lat="50.09941" lon="1.44223">
        <ele>69.35</ele>
        <time>2013-04-30T12:04:35Z</time>
      </trkpt>
      <trkpt lat="50.09941" lon="1.44216">
        <ele>69.35</ele>
        <time>2013-04-30T12:04:45Z</time>
      </trkpt>
      <trkpt lat="50.0993" lon="1.44192">
        <ele>68.39</ele>
        <time>2013-04-30T12:05:02Z</time>
      </trkpt>
      <trkpt lat="50.09927" lon="1.44189">
        <ele>68.39</ele>
        <time>2013-04-30T12:05:05Z</time>
      </trkpt>
      <trkpt lat="50.09925" lon="1.44184">
        <ele>69.83</ele>
        <time>2013-04-30T12:05:09Z</time>
      </trkpt>
      <trkpt lat="50.09924" lon="1.44181">
        <ele>70.31</ele>
        <time>2013-04-30T12:05:12Z</time>
      </trkpt>
      <trkpt lat="50.09916" lon="1.44164">
        <ele>70.31</ele>
        <time>2013-04-30T12:05:26Z</time>
      </trkpt>
      <trkpt lat="50.09906" lon="1.44144">
        <ele>72.24</ele>
        <time>2013-04-30T12:05:41Z</time>
      </trkpt>
      <trkpt lat="50.09899" lon="1.44136">
        <ele>71.76</ele>
        <time>2013-04-30T12:05:51Z</time>
      </trkpt>
      <trkpt lat="50.09899" lon="1.44133">
        <ele>72.72</ele>
        <time>2013-04-30T12:06:02Z</time>
      </trkpt>
      <trkpt lat="50.09892" lon="1.44117">
        <ele>71.27</ele>
        <time>2013-04-30T12:06:22Z</time>
      </trkpt>
      <trkpt lat="50.09873" lon="1.44085">
        <ele>71.76</ele>
        <time>2013-04-30T12:06:47Z</time>
      </trkpt>
      <trkpt lat="50.09867" lon="1.44064">
        <ele>70.79</ele>
        <time>2013-04-30T12:07:11Z</time>
      </trkpt>
      <trkpt lat="50.09863" lon="1.44054">
        <ele>70.31</ele>
        <time>2013-04-30T12:07:40Z</time>
      </trkpt>
      <trkpt lat="50.0985" lon="1.44019">
        <ele>69.83</ele>
        <time>2013-04-30T12:08:04Z</time>
      </trkpt>
      <trkpt lat="50.09839" lon="1.44">
        <ele>69.35</ele>
        <time>2013-04-30T12:08:22Z</time>
      </trkpt>
      <trkpt lat="50.09829" lon="1.43974">
        <ele>68.87</ele>
        <time>2013-04-30T12:08:42Z</time>
      </trkpt>
      <trkpt lat="50.09814" lon="1.43939">
        <ele>67.91</ele>
        <time>2013-04-30T12:09:08Z</time>
      </trkpt>
      <trkpt lat="50.09813" lon="1.43938">
        <ele>66.95</ele>
        <time>2013-04-30T12:09:12Z</time>
      </trkpt>
      <trkpt lat="50.09802" lon="1.43913">
        <ele>65.03</ele>
        <time>2013-04-30T12:09:29Z</time>
      </trkpt>
      <trkpt lat="50.09793" lon="1.43887">
        <ele>63.1</ele>
        <time>2013-04-30T12:09:46Z</time>
      </trkpt>
      <trkpt lat="50.09788" lon="1.43878">
        <ele>62.14</ele>
        <time>2013-04-30T12:09:57Z</time>
      </trkpt>
      <trkpt lat="50.09783" lon="1.43871">
        <ele>62.14</ele>
        <time>2013-04-30T12:10:09Z</time>
      </trkpt>
      <trkpt lat="50.09778" lon="1.43866">
        <ele>61.66</ele>
        <time>2013-04-30T12:10:18Z</time>
      </trkpt>
      <trkpt lat="50.09764" lon="1.43852">
        <ele>60.7</ele>
        <time>2013-04-30T12:10:32Z</time>
      </trkpt>
      <trkpt lat="50.09753" lon="1.43829">
        <ele>59.26</ele>
        <time>2013-04-30T12:10:47Z</time>
      </trkpt>
      <trkpt lat="50.09739" lon="1.4381">
        <ele>58.3</ele>
        <time>2013-04-30T12:11:03Z</time>
      </trkpt>
      <trkpt lat="50.09729" lon="1.43796">
        <ele>58.78</ele>
        <time>2013-04-30T12:11:17Z</time>
      </trkpt>
      <trkpt lat="50.09727" lon="1.43796">
        <ele>61.18</ele>
        <time>2013-04-30T12:11:26Z</time>
      </trkpt>
      <trkpt lat="50.09727" lon="1.43793">
        <ele>59.74</ele>
        <time>2013-04-30T12:11:29Z</time>
      </trkpt>
      <trkpt lat="50.09725" lon="1.43785">
        <ele>57.34</ele>
        <time>2013-04-30T12:11:34Z</time>
      </trkpt>
      <trkpt lat="50.09725" lon="1.43784">
        <ele>56.37</ele>
        <time>2013-04-30T12:11:35Z</time>
      </trkpt>
      <trkpt lat="50.09712" lon="1.43764">
        <ele>55.41</ele>
        <time>2013-04-30T12:11:51Z</time>
      </trkpt>
      <trkpt lat="50.09709" lon="1.4376">
        <ele>55.41</ele>
        <time>2013-04-30T12:11:55Z</time>
      </trkpt>
      <trkpt lat="50.09703" lon="1.43749">
        <ele>54.93</ele>
        <time>2013-04-30T12:12:08Z</time>
      </trkpt>
      <trkpt lat="50.09698" lon="1.43745">
        <ele>54.45</ele>
        <time>2013-04-30T12:12:22Z</time>
      </trkpt>
      <trkpt lat="50.0969" lon="1.43736">
        <ele>53.49</ele>
        <time>2013-04-30T12:12:35Z</time>
      </trkpt>
      <trkpt lat="50.09691" lon="1.43737">
        <ele>53.97</ele>
        <time>2013-04-30T12:12:37Z</time>
      </trkpt>
      <trkpt lat="50.09688" lon="1.43734">
        <ele>53.49</ele>
        <time>2013-04-30T12:12:40Z</time>
      </trkpt>
      <trkpt lat="50.09675" lon="1.43711">
        <ele>52.53</ele>
        <time>2013-04-30T12:12:55Z</time>
      </trkpt>
      <trkpt lat="50.09663" lon="1.43694">
        <ele>52.53</ele>
        <time>2013-04-30T12:13:08Z</time>
      </trkpt>
      <trkpt lat="50.09659" lon="1.43683">
        <ele>53.01</ele>
        <time>2013-04-30T12:13:20Z</time>
      </trkpt>
      <trkpt lat="50.09652" lon="1.43675">
        <ele>53.01</ele>
        <time>2013-04-30T12:13:31Z</time>
      </trkpt>
      <trkpt lat="50.09646" lon="1.43661">
        <ele>53.97</ele>
        <time>2013-04-30T12:13:44Z</time>
      </trkpt>
      <trkpt lat="50.09645" lon="1.43656">
        <ele>54.45</ele>
        <time>2013-04-30T12:13:47Z</time>
      </trkpt>
      <trkpt lat="50.09636" lon="1.43635">
        <ele>56.86</ele>
        <time>2013-04-30T12:14:02Z</time>
      </trkpt>
      <trkpt lat="50.09633" lon="1.43616">
        <ele>58.3</ele>
        <time>2013-04-30T12:14:17Z</time>
      </trkpt>
      <trkpt lat="50.09629" lon="1.43609">
        <ele>61.18</ele>
        <time>2013-04-30T12:14:27Z</time>
      </trkpt>
      <trkpt lat="50.09628" lon="1.43605">
        <ele>64.55</ele>
        <time>2013-04-30T12:14:35Z</time>
      </trkpt>
      <trkpt lat="50.09627" lon="1.43604">
        <ele>65.03</ele>
        <time>2013-04-30T12:14:41Z</time>
      </trkpt>
      <trkpt lat="50.09627" lon="1.43603">
        <ele>65.03</ele>
        <time>2013-04-30T12:14:42Z</time>
      </trkpt>
      <trkpt lat="50.09627" lon="1.43601">
        <ele>65.99</ele>
        <time>2013-04-30T12:14:56Z</time>
      </trkpt>
      <trkpt lat="50.09616" lon="1.43588">
        <ele>67.43</ele>
        <time>2013-04-30T12:15:08Z</time>
      </trkpt>
      <trkpt lat="50.09605" lon="1.43573">
        <ele>72.24</ele>
        <time>2013-04-30T12:15:22Z</time>
      </trkpt>
      <trkpt lat="50.09595" lon="1.43553">
        <ele>73.2</ele>
        <time>2013-04-30T12:15:39Z</time>
      </trkpt>
      <trkpt lat="50.09587" lon="1.43533">
        <ele>75.12</ele>
        <time>2013-04-30T12:15:55Z</time>
      </trkpt>
      <trkpt lat="50.0958" lon="1.43517">
        <ele>78.48</ele>
        <time>2013-04-30T12:16:08Z</time>
      </trkpt>
      <trkpt lat="50.09569" lon="1.435">
        <ele>79.93</ele>
        <time>2013-04-30T12:16:22Z</time>
      </trkpt>
      <trkpt lat="50.0955" lon="1.43482">
        <ele>81.85</ele>
        <time>2013-04-30T12:16:41Z</time>
      </trkpt>
      <trkpt lat="50.09548" lon="1.43479">
        <ele>82.33</ele>
        <time>2013-04-30T12:16:54Z</time>
      </trkpt>
      <trkpt lat="50.09538" lon="1.43466">
        <ele>81.85</ele>
        <time>2013-04-30T12:17:05Z</time>
      </trkpt>
      <trkpt lat="50.09518" lon="1.4344">
        <ele>82.81</ele>
        <time>2013-04-30T12:17:24Z</time>
      </trkpt>
      <trkpt lat="50.09502" lon="1.43417">
        <ele>82.33</ele>
        <time>2013-04-30T12:17:42Z</time>
      </trkpt>
      <trkpt lat="50.09489" lon="1.43393">
        <ele>81.85</ele>
        <time>2013-04-30T12:17:58Z</time>
      </trkpt>
      <trkpt lat="50.09479" lon="1.43381">
        <ele>80.89</ele>
        <time>2013-04-30T12:18:09Z</time>
      </trkpt>
      <trkpt lat="50.09472" lon="1.43373">
        <ele>80.89</ele>
        <time>2013-04-30T12:18:16Z</time>
      </trkpt>
      <trkpt lat="50.09467" lon="1.43364">
        <ele>80.89</ele>
        <time>2013-04-30T12:18:29Z</time>
      </trkpt>
      <trkpt lat="50.09453" lon="1.43352">
        <ele>80.41</ele>
        <time>2013-04-30T12:18:43Z</time>
      </trkpt>
      <trkpt lat="50.0945" lon="1.43353">
        <ele>79.45</ele>
        <time>2013-04-30T12:18:54Z</time>
      </trkpt>
      <trkpt lat="50.09447" lon="1.43345">
        <ele>79.45</ele>
        <time>2013-04-30T12:19:00Z</time>
      </trkpt>
      <trkpt lat="50.09431" lon="1.43328">
        <ele>78.97</ele>
        <time>2013-04-30T12:19:16Z</time>
      </trkpt>
      <trkpt lat="50.09427" lon="1.43326">
        <ele>78.97</ele>
        <time>2013-04-30T12:19:20Z</time>
      </trkpt>
      <trkpt lat="50.09422" lon="1.43325">
        <ele>78.97</ele>
        <time>2013-04-30T12:19:36Z</time>
      </trkpt>
      <trkpt lat="50.09422" lon="1.43328">
        <ele>79.45</ele>
        <time>2013-04-30T12:19:43Z</time>
      </trkpt>
      <trkpt lat="50.09408" lon="1.43332">
        <ele>79.45</ele>
        <time>2013-04-30T12:19:57Z</time>
      </trkpt>
      <trkpt lat="50.09407" lon="1.4333">
        <ele>78.48</ele>
        <time>2013-04-30T12:20:00Z</time>
      </trkpt>
      <trkpt lat="50.09404" lon="1.43326">
        <ele>76.56</ele>
        <time>2013-04-30T12:20:03Z</time>
      </trkpt>
      <trkpt lat="50.09402" lon="1.43327">
        <ele>75.12</ele>
        <time>2013-04-30T12:20:17Z</time>
      </trkpt>
      <trkpt lat="50.09401" lon="1.43329">
        <ele>75.12</ele>
        <time>2013-04-30T12:20:24Z</time>
      </trkpt>
      <trkpt lat="50.0939" lon="1.43323">
        <ele>74.64</ele>
        <time>2013-04-30T12:20:42Z</time>
      </trkpt>
      <trkpt lat="50.09387" lon="1.43322">
        <ele>76.08</ele>
        <time>2013-04-30T12:20:49Z</time>
      </trkpt>
      <trkpt lat="50.09367" lon="1.43321">
        <ele>72.24</ele>
        <time>2013-04-30T12:21:07Z</time>
      </trkpt>
      <trkpt lat="50.09359" lon="1.43302">
        <ele>70.31</ele>
        <time>2013-04-30T12:21:21Z</time>
      </trkpt>
      <trkpt lat="50.09353" lon="1.43293">
        <ele>68.39</ele>
        <time>2013-04-30T12:21:31Z</time>
      </trkpt>
      <trkpt lat="50.09352" lon="1.43289">
        <ele>67.43</ele>
        <time>2013-04-30T12:21:34Z</time>
      </trkpt>
      <trkpt lat="50.09352" lon="1.43284">
        <ele>65.51</ele>
        <time>2013-04-30T12:21:37Z</time>
      </trkpt>
      <trkpt lat="50.09347" lon="1.43274">
        <ele>63.58</ele>
        <time>2013-04-30T12:21:49Z</time>
      </trkpt>
      <trkpt lat="50.09341" lon="1.43259">
        <ele>61.66</ele>
        <time>2013-04-30T12:22:02Z</time>
      </trkpt>
      <trkpt lat="50.09339" lon="1.43251">
        <ele>58.78</ele>
        <time>2013-04-30T12:22:10Z</time>
      </trkpt>
      <trkpt lat="50.09325" lon="1.43234">
        <ele>57.34</ele>
        <time>2013-04-30T12:22:25Z</time>
      </trkpt>
      <trkpt lat="50.09324" lon="1.43236">
        <ele>57.82</ele>
        <time>2013-04-30T12:22:36Z</time>
      </trkpt>
      <trkpt lat="50.09314" lon="1.43236">
        <ele>56.37</ele>
        <time>2013-04-30T12:22:45Z</time>
      </trkpt>
      <trkpt lat="50.09312" lon="1.43235">
        <ele>55.89</ele>
        <time>2013-04-30T12:22:47Z</time>
      </trkpt>
      <trkpt lat="50.09309" lon="1.43229">
        <ele>53.97</ele>
        <time>2013-04-30T12:22:51Z</time>
      </trkpt>
      <trkpt lat="50.0931" lon="1.43224">
        <ele>54.45</ele>
        <time>2013-04-30T12:23:04Z</time>
      </trkpt>
      <trkpt lat="50.09305" lon="1.43217">
        <ele>54.93</ele>
        <time>2013-04-30T12:23:21Z</time>
      </trkpt>
      <trkpt lat="50.09291" lon="1.43195">
        <ele>54.93</ele>
        <time>2013-04-30T12:23:38Z</time>
      </trkpt>
      <trkpt lat="50.09292" lon="1.43195">
        <ele>54.93</ele>
        <time>2013-04-30T12:23:40Z</time>
      </trkpt>
      <trkpt lat="50.09287" lon="1.4318">
        <ele>55.41</ele>
        <time>2013-04-30T12:23:53Z</time>
      </trkpt>
      <trkpt lat="50.09285" lon="1.43172">
        <ele>55.89</ele>
        <time>2013-04-30T12:24:00Z</time>
      </trkpt>
      <trkpt lat="50.0928" lon="1.43155">
        <ele>57.34</ele>
        <time>2013-04-30T12:24:11Z</time>
      </trkpt>
      <trkpt lat="50.09273" lon="1.43142">
        <ele>57.82</ele>
        <time>2013-04-30T12:24:21Z</time>
      </trkpt>
      <trkpt lat="50.09267" lon="1.43137">
        <ele>60.22</ele>
        <time>2013-04-30T12:24:28Z</time>
      </trkpt>
      <trkpt lat="50.09266" lon="1.43133">
        <ele>60.7</ele>
        <time>2013-04-30T12:24:32Z</time>
      </trkpt>
      <trkpt lat="50.09264" lon="1.43126">
        <ele>61.66</ele>
        <time>2013-04-30T12:24:37Z</time>
      </trkpt>
      <trkpt lat="50.09259" lon="1.43116">
        <ele>65.51</ele>
        <time>2013-04-30T12:24:49Z</time>
      </trkpt>
      <trkpt lat="50.0926" lon="1.43119">
        <ele>66.95</ele>
        <time>2013-04-30T12:25:03Z</time>
      </trkpt>
      <trkpt lat="50.09254" lon="1.4311">
        <ele>70.79</ele>
        <time>2013-04-30T12:25:13Z</time>
      </trkpt>
      <trkpt lat="50.09254" lon="1.43108">
        <ele>71.76</ele>
        <time>2013-04-30T12:25:25Z</time>
      </trkpt>
      <trkpt lat="50.09253" lon="1.43103">
        <ele>71.76</ele>
        <time>2013-04-30T12:25:38Z</time>
      </trkpt>
      <trkpt lat="50.09253" lon="1.43103">
        <ele>71.76</ele>
        <time>2013-04-30T12:25:40Z</time>
      </trkpt>
      <trkpt lat="50.0925" lon="1.43097">
        <ele>71.76</ele>
        <time>2013-04-30T12:25:48Z</time>
      </trkpt>
      <trkpt lat="50.09249" lon="1.43097">
        <ele>74.16</ele>
        <time>2013-04-30T12:25:54Z</time>
      </trkpt>
      <trkpt lat="50.09246" lon="1.43091">
        <ele>75.12</ele>
        <time>2013-04-30T12:25:58Z</time>
      </trkpt>
      <trkpt lat="50.09243" lon="1.43081">
        <ele>76.08</ele>
        <time>2013-04-30T12:26:03Z</time>
      </trkpt>
      <trkpt lat="50.09242" lon="1.43074">
        <ele>76.08</ele>
        <time>2013-04-30T12:26:07Z</time>
      </trkpt>
      <trkpt lat="50.09241" lon="1.43071">
        <ele>77.04</ele>
        <time>2013-04-30T12:26:09Z</time>
      </trkpt>
      <trkpt lat="50.0924" lon="1.43067">
        <ele>75.6</ele>
        <time>2013-04-30T12:26:21Z</time>
      </trkpt>
      <trkpt lat="50.0924" lon="1.43065">
        <ele>77.04</ele>
        <time>2013-04-30T12:26:29Z</time>
      </trkpt>
      <trkpt lat="50.09238" lon="1.43061">
        <ele>76.56</ele>
        <time>2013-04-30T12:26:32Z</time>
      </trkpt>
      <trkpt lat="50.09225" lon="1.43042">
        <ele>78.48</ele>
        <time>2013-04-30T12:26:47Z</time>
      </trkpt>
      <trkpt lat="50.09224" lon="1.43041">
        <ele>78.48</ele>
        <time>2013-04-30T12:27:02Z</time>
      </trkpt>
      <trkpt lat="50.09219" lon="1.43026">
        <ele>79.45</ele>
        <time>2013-04-30T12:27:16Z</time>
      </trkpt>
      <trkpt lat="50.09208" lon="1.43007">
        <ele>80.41</ele>
        <time>2013-04-30T12:27:31Z</time>
      </trkpt>
      <trkpt lat="50.092" lon="1.42997">
        <ele>84.25</ele>
        <time>2013-04-30T12:27:40Z</time>
      </trkpt>
      <trkpt lat="50.0919" lon="1.42977">
        <ele>84.73</ele>
        <time>2013-04-30T12:27:55Z</time>
      </trkpt>
      <trkpt lat="50.09188" lon="1.4296">
        <ele>84.25</ele>
        <time>2013-04-30T12:28:04Z</time>
      </trkpt>
      <trkpt lat="50.0918" lon="1.42931">
        <ele>83.77</ele>
        <time>2013-04-30T12:28:21Z</time>
      </trkpt>
      <trkpt lat="50.09177" lon="1.42923">
        <ele>83.77</ele>
        <time>2013-04-30T12:28:29Z</time>
      </trkpt>
      <trkpt lat="50.09173" lon="1.42907">
        <ele>83.29</ele>
        <time>2013-04-30T12:28:46Z</time>
      </trkpt>
      <trkpt lat="50.0917" lon="1.42899">
        <ele>84.25</ele>
        <time>2013-04-30T12:28:53Z</time>
      </trkpt>
      <trkpt lat="50.09166" lon="1.42886">
        <ele>82.81</ele>
        <time>2013-04-30T12:29:01Z</time>
      </trkpt>
      <trkpt lat="50.09155" lon="1.42857">
        <ele>82.33</ele>
        <time>2013-04-30T12:29:20Z</time>
      </trkpt>
      <trkpt lat="50.09147" lon="1.42838">
        <ele>82.33</ele>
        <time>2013-04-30T12:29:35Z</time>
      </trkpt>
      <trkpt lat="50.09147" lon="1.42837">
        <ele>82.81</ele>
        <time>2013-04-30T12:29:36Z</time>
      </trkpt>
      <trkpt lat="50.09138" lon="1.42815">
        <ele>82.33</ele>
        <time>2013-04-30T12:29:51Z</time>
      </trkpt>
      <trkpt lat="50.09125" lon="1.42788">
        <ele>81.37</ele>
        <time>2013-04-30T12:30:10Z</time>
      </trkpt>
      <trkpt lat="50.09123" lon="1.42785">
        <ele>81.37</ele>
        <time>2013-04-30T12:30:13Z</time>
      </trkpt>
      <trkpt lat="50.0912" lon="1.42779">
        <ele>81.37</ele>
        <time>2013-04-30T12:30:18Z</time>
      </trkpt>
      <trkpt lat="50.09115" lon="1.42773">
        <ele>80.89</ele>
        <time>2013-04-30T12:30:23Z</time>
      </trkpt>
      <trkpt lat="50.09104" lon="1.42751">
        <ele>80.89</ele>
        <time>2013-04-30T12:30:39Z</time>
      </trkpt>
      <trkpt lat="50.09093" lon="1.42725">
        <ele>80.41</ele>
        <time>2013-04-30T12:30:56Z</time>
      </trkpt>
      <trkpt lat="50.09085" lon="1.42703">
        <ele>79.93</ele>
        <time>2013-04-30T12:31:11Z</time>
      </trkpt>
      <trkpt lat="50.09076" lon="1.4268">
        <ele>79.45</ele>
        <time>2013-04-30T12:31:25Z</time>
      </trkpt>
      <trkpt lat="50.09075" lon="1.42669">
        <ele>78.97</ele>
        <time>2013-04-30T12:31:31Z</time>
      </trkpt>
      <trkpt lat="50.09067" lon="1.42653">
        <ele>78</ele>
        <time>2013-04-30T12:31:47Z</time>
      </trkpt>
      <trkpt lat="50.09066" lon="1.42644">
        <ele>78</ele>
        <time>2013-04-30T12:32:00Z</time>
      </trkpt>
      <trkpt lat="50.09071" lon="1.42642">
        <ele>78</ele>
        <time>2013-04-30T12:32:12Z</time>
      </trkpt>
      <trkpt lat="50.09087" lon="1.42628">
        <ele>77.04</ele>
        <time>2013-04-30T12:32:30Z</time>
      </trkpt>
      <trkpt lat="50.09085" lon="1.42626">
        <ele>78</ele>
        <time>2013-04-30T12:32:47Z</time>
      </trkpt>
      <trkpt lat="50.09082" lon="1.42622">
        <ele>78.48</ele>
        <time>2013-04-30T12:33:01Z</time>
      </trkpt>
      <trkpt lat="50.09071" lon="1.42608">
        <ele>79.45</ele>
        <time>2013-04-30T12:33:13Z</time>
      </trkpt>
      <trkpt lat="50.09065" lon="1.42597">
        <ele>79.93</ele>
        <time>2013-04-30T12:33:21Z</time>
      </trkpt>
      <trkpt lat="50.09062" lon="1.4259">
        <ele>77.04</ele>
        <time>2013-04-30T12:33:35Z</time>
      </trkpt>
      <trkpt lat="50.0906" lon="1.42587">
        <ele>76.08</ele>
        <time>2013-04-30T12:33:42Z</time>
      </trkpt>
      <trkpt lat="50.09059" lon="1.42577">
        <ele>74.16</ele>
        <time>2013-04-30T12:33:58Z</time>
      </trkpt>
      <trkpt lat="50.09055" lon="1.42574">
        <ele>71.27</ele>
        <time>2013-04-30T12:34:13Z</time>
      </trkpt>
      <trkpt lat="50.09052" lon="1.42565">
        <ele>68.87</ele>
        <time>2013-04-30T12:34:19Z</time>
      </trkpt>
      <trkpt lat="50.0905" lon="1.42542">
        <ele>65.99</ele>
        <time>2013-04-30T12:34:35Z</time>
      </trkpt>
      <trkpt lat="50.09047" lon="1.42525">
        <ele>65.51</ele>
        <time>2013-04-30T12:34:47Z</time>
      </trkpt>
      <trkpt lat="50.09042" lon="1.42524">
        <ele>63.58</ele>
        <time>2013-04-30T12:34:51Z</time>
      </trkpt>
      <trkpt lat="50.09031" lon="1.42527">
        <ele>63.58</ele>
        <time>2013-04-30T12:35:03Z</time>
      </trkpt>
      <trkpt lat="50.09029" lon="1.42524">
        <ele>63.1</ele>
        <time>2013-04-30T12:35:06Z</time>
      </trkpt>
      <trkpt lat="50.09027" lon="1.42513">
        <ele>61.66</ele>
        <time>2013-04-30T12:35:20Z</time>
      </trkpt>
      <trkpt lat="50.09021" lon="1.42508">
        <ele>58.3</ele>
        <time>2013-04-30T12:35:42Z</time>
      </trkpt>
      <trkpt lat="50.09019" lon="1.42505">
        <ele>56.86</ele>
        <time>2013-04-30T12:35:46Z</time>
      </trkpt>
      <trkpt lat="50.09022" lon="1.42502">
        <ele>56.86</ele>
        <time>2013-04-30T12:36:05Z</time>
      </trkpt>
      <trkpt lat="50.0902" lon="1.42503">
        <ele>56.37</ele>
        <time>2013-04-30T12:36:09Z</time>
      </trkpt>
      <trkpt lat="50.09018" lon="1.42492">
        <ele>53.97</ele>
        <time>2013-04-30T12:36:17Z</time>
      </trkpt>
      <trkpt lat="50.09015" lon="1.42486">
        <ele>53.01</ele>
        <time>2013-04-30T12:36:22Z</time>
      </trkpt>
      <trkpt lat="50.09013" lon="1.42485">
        <ele>53.01</ele>
        <time>2013-04-30T12:36:28Z</time>
      </trkpt>
      <trkpt lat="50.09007" lon="1.42472">
        <ele>52.05</ele>
        <time>2013-04-30T12:36:38Z</time>
      </trkpt>
      <trkpt lat="50.09006" lon="1.42457">
        <ele>50.13</ele>
        <time>2013-04-30T12:36:49Z</time>
      </trkpt>
      <trkpt lat="50.09011" lon="1.42456">
        <ele>49.16</ele>
        <time>2013-04-30T12:37:03Z</time>
      </trkpt>
      <trkpt lat="50.09014" lon="1.42457">
        <ele>49.16</ele>
        <time>2013-04-30T12:37:30Z</time>
      </trkpt>
      <trkpt lat="50.09017" lon="1.42461">
        <ele>50.13</ele>
        <time>2013-04-30T12:37:44Z</time>
      </trkpt>
      <trkpt lat="50.09016" lon="1.4246">
        <ele>50.61</ele>
        <time>2013-04-30T12:37:59Z</time>
      </trkpt>
      <trkpt lat="50.09009" lon="1.42462">
        <ele>51.57</ele>
        <time>2013-04-30T12:38:03Z</time>
      </trkpt>
      <trkpt lat="50.08997" lon="1.42471">
        <ele>49.16</ele>
        <time>2013-04-30T12:38:17Z</time>
      </trkpt>
      <trkpt lat="50.08992" lon="1.42471">
        <ele>49.65</ele>
        <time>2013-04-30T12:38:27Z</time>
      </trkpt>
      <trkpt lat="50.08981" lon="1.42464">
        <ele>49.16</ele>
        <time>2013-04-30T12:38:44Z</time>
      </trkpt>
      <trkpt lat="50.08982" lon="1.42466">
        <ele>49.65</ele>
        <time>2013-04-30T12:39:13Z</time>
      </trkpt>
      <trkpt lat="50.08969" lon="1.42472">
        <ele>48.2</ele>
        <time>2013-04-30T12:39:28Z</time>
      </trkpt>
      <trkpt lat="50.08968" lon="1.42471">
        <ele>48.68</ele>
        <time>2013-04-30T12:39:41Z</time>
      </trkpt>
      <trkpt lat="50.08966" lon="1.42471">
        <ele>48.2</ele>
        <time>2013-04-30T12:39:51Z</time>
      </trkpt>
      <trkpt lat="50.08964" lon="1.42472">
        <ele>49.16</ele>
        <time>2013-04-30T12:40:17Z</time>
      </trkpt>
      <trkpt lat="50.08964" lon="1.42472">
        <ele>49.16</ele>
        <time>2013-04-30T12:40:18Z</time>
      </trkpt>
      <trkpt lat="50.08951" lon="1.4248">
        <ele>47.72</ele>
        <time>2013-04-30T12:40:33Z</time>
      </trkpt>
      <trkpt lat="50.0894" lon="1.42486">
        <ele>45.32</ele>
        <time>2013-04-30T12:40:49Z</time>
      </trkpt>
      <trkpt lat="50.08943" lon="1.42478">
        <ele>41.95</ele>
        <time>2013-04-30T12:41:01Z</time>
      </trkpt>
      <trkpt lat="50.08946" lon="1.42471">
        <ele>40.51</ele>
        <time>2013-04-30T12:41:14Z</time>
      </trkpt>
      <trkpt lat="50.08946" lon="1.42469">
        <ele>40.03</ele>
        <time>2013-04-30T12:41:16Z</time>
      </trkpt>
      <trkpt lat="50.08942" lon="1.42455">
        <ele>39.07</ele>
        <time>2013-04-30T12:41:26Z</time>
      </trkpt>
      <trkpt lat="50.08943" lon="1.42449">
        <ele>39.55</ele>
        <time>2013-04-30T12:41:30Z</time>
      </trkpt>
      <trkpt lat="50.08938" lon="1.42432">
        <ele>38.59</ele>
        <time>2013-04-30T12:41:46Z</time>
      </trkpt>
      <trkpt lat="50.08937" lon="1.42431">
        <ele>38.11</ele>
        <time>2013-04-30T12:41:51Z</time>
      </trkpt>
      <trkpt lat="50.08935" lon="1.42428">
        <ele>37.15</ele>
        <time>2013-04-30T12:41:53Z</time>
      </trkpt>
      <trkpt lat="50.08934" lon="1.42413">
        <ele>37.63</ele>
        <time>2013-04-30T12:42:07Z</time>
      </trkpt>
      <trkpt lat="50.08933" lon="1.42415">
        <ele>39.07</ele>
        <time>2013-04-30T12:42:10Z</time>
      </trkpt>
      <trkpt lat="50.08934" lon="1.42417">
        <ele>39.07</ele>
        <time>2013-04-30T12:42:16Z</time>
      </trkpt>
      <trkpt lat="50.08936" lon="1.4242">
        <ele>35.71</ele>
        <time>2013-04-30T12:42:20Z</time>
      </trkpt>
      <trkpt lat="50.08935" lon="1.42421">
        <ele>36.67</ele>
        <time>2013-04-30T12:42:21Z</time>
      </trkpt>
      <trkpt lat="50.08934" lon="1.42424">
        <ele>37.15</ele>
        <time>2013-04-30T12:42:41Z</time>
      </trkpt>
      <trkpt lat="50.08941" lon="1.42425">
        <ele>38.59</ele>
        <time>2013-04-30T12:42:54Z</time>
      </trkpt>
      <trkpt lat="50.08936" lon="1.42422">
        <ele>38.11</ele>
        <time>2013-04-30T12:43:00Z</time>
      </trkpt>
      <trkpt lat="50.08934" lon="1.4242">
        <ele>37.63</ele>
        <time>2013-04-30T12:43:02Z</time>
      </trkpt>
      <trkpt lat="50.08931" lon="1.42419">
        <ele>36.67</ele>
        <time>2013-04-30T12:43:06Z</time>
      </trkpt>
      <trkpt lat="50.08935" lon="1.42426">
        <ele>37.15</ele>
        <time>2013-04-30T12:43:12Z</time>
      </trkpt>
      <trkpt lat="50.08937" lon="1.4243">
        <ele>38.11</ele>
        <time>2013-04-30T12:43:15Z</time>
      </trkpt>
      <trkpt lat="50.08943" lon="1.42447">
        <ele>39.07</ele>
        <time>2013-04-30T12:43:28Z</time>
      </trkpt>
      <trkpt lat="50.08941" lon="1.42457">
        <ele>39.55</ele>
        <time>2013-04-30T12:43:35Z</time>
      </trkpt>
      <trkpt lat="50.08944" lon="1.42466">
        <ele>40.51</ele>
        <time>2013-04-30T12:43:51Z</time>
      </trkpt>
      <trkpt lat="50.08944" lon="1.42466">
        <ele>40.03</ele>
        <time>2013-04-30T12:44:19Z</time>
      </trkpt>
      <trkpt lat="50.08945" lon="1.42468">
        <ele>40.03</ele>
        <time>2013-04-30T12:44:48Z</time>
      </trkpt>
      <trkpt lat="50.08945" lon="1.42465">
        <ele>40.51</ele>
        <time>2013-04-30T12:45:28Z</time>
      </trkpt>
      <trkpt lat="50.08941" lon="1.42465">
        <ele>40.51</ele>
        <time>2013-04-30T12:45:41Z</time>
      </trkpt>
      <trkpt lat="50.08937" lon="1.42468">
        <ele>40.03</ele>
        <time>2013-04-30T12:46:11Z</time>
      </trkpt>
      <trkpt lat="50.08937" lon="1.42468">
        <ele>40.99</ele>
        <time>2013-04-30T12:46:25Z</time>
      </trkpt>
      <trkpt lat="50.08931" lon="1.42469">
        <ele>40.99</ele>
        <time>2013-04-30T12:46:36Z</time>
      </trkpt>
      <trkpt lat="50.08927" lon="1.4247">
        <ele>41.47</ele>
        <time>2013-04-30T12:46:43Z</time>
      </trkpt>
      <trkpt lat="50.08921" lon="1.42462">
        <ele>40.99</ele>
        <time>2013-04-30T12:46:51Z</time>
      </trkpt>
      <trkpt lat="50.08918" lon="1.42463">
        <ele>40.99</ele>
        <time>2013-04-30T12:46:54Z</time>
      </trkpt>
      <trkpt lat="50.08909" lon="1.42474">
        <ele>41.47</ele>
        <time>2013-04-30T12:47:08Z</time>
      </trkpt>
      <trkpt lat="50.08891" lon="1.42491">
        <ele>40.99</ele>
        <time>2013-04-30T12:47:29Z</time>
      </trkpt>
      <trkpt lat="50.08885" lon="1.425">
        <ele>42.92</ele>
        <time>2013-04-30T12:47:50Z</time>
      </trkpt>
      <trkpt lat="50.08873" lon="1.42514">
        <ele>43.4</ele>
        <time>2013-04-30T12:48:04Z</time>
      </trkpt>
      <trkpt lat="50.08869" lon="1.42518">
        <ele>43.4</ele>
        <time>2013-04-30T12:48:09Z</time>
      </trkpt>
      <trkpt lat="50.08863" lon="1.42527">
        <ele>42.92</ele>
        <time>2013-04-30T12:48:19Z</time>
      </trkpt>
      <trkpt lat="50.08859" lon="1.42534">
        <ele>43.4</ele>
        <time>2013-04-30T12:48:25Z</time>
      </trkpt>
      <trkpt lat="50.08853" lon="1.42541">
        <ele>43.4</ele>
        <time>2013-04-30T12:48:32Z</time>
      </trkpt>
      <trkpt lat="50.08836" lon="1.42551">
        <ele>44.84</ele>
        <time>2013-04-30T12:48:50Z</time>
      </trkpt>
      <trkpt lat="50.08827" lon="1.42558">
        <ele>45.32</ele>
        <time>2013-04-30T12:49:02Z</time>
      </trkpt>
      <trkpt lat="50.08827" lon="1.42565">
        <ele>45.32</ele>
        <time>2013-04-30T12:49:13Z</time>
      </trkpt>
      <trkpt lat="50.08826" lon="1.42568">
        <ele>45.32</ele>
        <time>2013-04-30T12:49:15Z</time>
      </trkpt>
      <trkpt lat="50.0882" lon="1.42592">
        <ele>45.8</ele>
        <time>2013-04-30T12:49:31Z</time>
      </trkpt>
      <trkpt lat="50.08817" lon="1.42597">
        <ele>46.28</ele>
        <time>2013-04-30T12:49:37Z</time>
      </trkpt>
      <trkpt lat="50.08797" lon="1.42617">
        <ele>46.76</ele>
        <time>2013-04-30T12:49:59Z</time>
      </trkpt>
      <trkpt lat="50.08788" lon="1.42633">
        <ele>47.24</ele>
        <time>2013-04-30T12:50:15Z</time>
      </trkpt>
      <trkpt lat="50.08776" lon="1.42652">
        <ele>48.2</ele>
        <time>2013-04-30T12:50:32Z</time>
      </trkpt>
      <trkpt lat="50.0877" lon="1.42657">
        <ele>48.68</ele>
        <time>2013-04-30T12:50:51Z</time>
      </trkpt>
      <trkpt lat="50.08754" lon="1.4268">
        <ele>49.65</ele>
        <time>2013-04-30T12:51:17Z</time>
      </trkpt>
      <trkpt lat="50.08747" lon="1.427">
        <ele>50.13</ele>
        <time>2013-04-30T12:51:29Z</time>
      </trkpt>
      <trkpt lat="50.0874" lon="1.42704">
        <ele>49.65</ele>
        <time>2013-04-30T12:51:33Z</time>
      </trkpt>
      <trkpt lat="50.08731" lon="1.42718">
        <ele>51.09</ele>
        <time>2013-04-30T12:51:47Z</time>
      </trkpt>
      <trkpt lat="50.08727" lon="1.42726">
        <ele>51.57</ele>
        <time>2013-04-30T12:51:54Z</time>
      </trkpt>
      <trkpt lat="50.08724" lon="1.42728">
        <ele>51.57</ele>
        <time>2013-04-30T12:51:57Z</time>
      </trkpt>
      <trkpt lat="50.08719" lon="1.42735">
        <ele>52.05</ele>
        <time>2013-04-30T12:52:03Z</time>
      </trkpt>
      <trkpt lat="50.08716" lon="1.42739">
        <ele>52.53</ele>
        <time>2013-04-30T12:52:06Z</time>
      </trkpt>
      <trkpt lat="50.08709" lon="1.4275">
        <ele>52.53</ele>
        <time>2013-04-30T12:52:20Z</time>
      </trkpt>
      <trkpt lat="50.08696" lon="1.42772">
        <ele>53.49</ele>
        <time>2013-04-30T12:52:38Z</time>
      </trkpt>
      <trkpt lat="50.0868" lon="1.42799">
        <ele>54.45</ele>
        <time>2013-04-30T12:53:00Z</time>
      </trkpt>
      <trkpt lat="50.08676" lon="1.42805">
        <ele>54.45</ele>
        <time>2013-04-30T12:53:03Z</time>
      </trkpt>
      <trkpt lat="50.08662" lon="1.42819">
        <ele>55.41</ele>
        <time>2013-04-30T12:53:12Z</time>
      </trkpt>
      <trkpt lat="50.08648" lon="1.42827">
        <ele>55.89</ele>
        <time>2013-04-30T12:53:30Z</time>
      </trkpt>
      <trkpt lat="50.0864" lon="1.42843">
        <ele>56.86</ele>
        <time>2013-04-30T12:53:43Z</time>
      </trkpt>
      <trkpt lat="50.08629" lon="1.42858">
        <ele>57.82</ele>
        <time>2013-04-30T12:54:00Z</time>
      </trkpt>
      <trkpt lat="50.08605" lon="1.42883">
        <ele>59.26</ele>
        <time>2013-04-30T12:54:23Z</time>
      </trkpt>
      <trkpt lat="50.08593" lon="1.42899">
        <ele>62.62</ele>
        <time>2013-04-30T12:54:40Z</time>
      </trkpt>
      <trkpt lat="50.0859" lon="1.42916">
        <ele>65.51</ele>
        <time>2013-04-30T12:54:58Z</time>
      </trkpt>
      <trkpt lat="50.08573" lon="1.42925">
        <ele>68.39</ele>
        <time>2013-04-30T12:55:21Z</time>
      </trkpt>
      <trkpt lat="50.08574" lon="1.42932">
        <ele>69.35</ele>
        <time>2013-04-30T12:55:26Z</time>
      </trkpt>
      <trkpt lat="50.08578" lon="1.42961">
        <ele>72.72</ele>
        <time>2013-04-30T12:55:43Z</time>
      </trkpt>
      <trkpt lat="50.08562" lon="1.42977">
        <ele>75.6</ele>
        <time>2013-04-30T12:55:57Z</time>
      </trkpt>
      <trkpt lat="50.08551" lon="1.42972">
        <ele>78.97</ele>
        <time>2013-04-30T12:56:12Z</time>
      </trkpt>
      <trkpt lat="50.08544" lon="1.4297">
        <ele>81.85</ele>
        <time>2013-04-30T12:56:24Z</time>
      </trkpt>
      <trkpt lat="50.08521" lon="1.42972">
        <ele>85.21</ele>
        <time>2013-04-30T12:56:43Z</time>
      </trkpt>
      <trkpt lat="50.08524" lon="1.4301">
        <ele>86.66</ele>
        <time>2013-04-30T12:57:07Z</time>
      </trkpt>
      <trkpt lat="50.08521" lon="1.43015">
        <ele>88.58</ele>
        <time>2013-04-30T12:57:21Z</time>
      </trkpt>
      <trkpt lat="50.08527" lon="1.43005">
        <ele>87.62</ele>
        <time>2013-04-30T12:57:34Z</time>
      </trkpt>
      <trkpt lat="50.08533" lon="1.43017">
        <ele>86.66</ele>
        <time>2013-04-30T12:57:50Z</time>
      </trkpt>
      <trkpt lat="50.0853" lon="1.43012">
        <ele>86.66</ele>
        <time>2013-04-30T12:58:14Z</time>
      </trkpt>
      <trkpt lat="50.08541" lon="1.43011">
        <ele>87.14</ele>
        <time>2013-04-30T12:58:39Z</time>
      </trkpt>
      <trkpt lat="50.08543" lon="1.43011">
        <ele>86.66</ele>
        <time>2013-04-30T12:58:41Z</time>
      </trkpt>
      <trkpt lat="50.08534" lon="1.43004">
        <ele>86.66</ele>
        <time>2013-04-30T12:59:02Z</time>
      </trkpt>
      <trkpt lat="50.08535" lon="1.43011">
        <ele>86.66</ele>
        <time>2013-04-30T12:59:33Z</time>
      </trkpt>
      <trkpt lat="50.08527" lon="1.43003">
        <ele>86.18</ele>
        <time>2013-04-30T13:00:06Z</time>
      </trkpt>
      <trkpt lat="50.0853" lon="1.43006">
        <ele>87.14</ele>
        <time>2013-04-30T13:00:26Z</time>
      </trkpt>
      <trkpt lat="50.08523" lon="1.43012">
        <ele>87.14</ele>
        <time>2013-04-30T13:00:52Z</time>
      </trkpt>
      <trkpt lat="50.08532" lon="1.4302">
        <ele>88.58</ele>
        <time>2013-04-30T13:01:05Z</time>
      </trkpt>
      <trkpt lat="50.08531" lon="1.43025">
        <ele>89.06</ele>
        <time>2013-04-30T13:01:30Z</time>
      </trkpt>
      <trkpt lat="50.08537" lon="1.43016">
        <ele>88.1</ele>
        <time>2013-04-30T13:01:52Z</time>
      </trkpt>
      <trkpt lat="50.08538" lon="1.4302">
        <ele>87.62</ele>
        <time>2013-04-30T13:02:19Z</time>
      </trkpt>
      <trkpt lat="50.08534" lon="1.43012">
        <ele>87.14</ele>
        <time>2013-04-30T13:02:34Z</time>
      </trkpt>
      <trkpt lat="50.08533" lon="1.43011">
        <ele>87.14</ele>
        <time>2013-04-30T13:02:56Z</time>
      </trkpt>
      <trkpt lat="50.08532" lon="1.43026">
        <ele>88.58</ele>
        <time>2013-04-30T13:03:08Z</time>
      </trkpt>
      <trkpt lat="50.08505" lon="1.43037">
        <ele>88.58</ele>
        <time>2013-04-30T13:03:21Z</time>
      </trkpt>
      <trkpt lat="50.08497" lon="1.4305">
        <ele>89.06</ele>
        <time>2013-04-30T13:03:34Z</time>
      </trkpt>
      <trkpt lat="50.08489" lon="1.4306">
        <ele>89.54</ele>
        <time>2013-04-30T13:03:48Z</time>
      </trkpt>
      <trkpt lat="50.0848" lon="1.43073">
        <ele>86.66</ele>
        <time>2013-04-30T13:04:04Z</time>
      </trkpt>
      <trkpt lat="50.0847" lon="1.43086">
        <ele>87.62</ele>
        <time>2013-04-30T13:04:17Z</time>
      </trkpt>
      <trkpt lat="50.08467" lon="1.4309">
        <ele>88.1</ele>
        <time>2013-04-30T13:04:22Z</time>
      </trkpt>
      <trkpt lat="50.08455" lon="1.43104">
        <ele>89.06</ele>
        <time>2013-04-30T13:04:37Z</time>
      </trkpt>
      <trkpt lat="50.08446" lon="1.43123">
        <ele>90.98</ele>
        <time>2013-04-30T13:04:53Z</time>
      </trkpt>
      <trkpt lat="50.08438" lon="1.43139">
        <ele>93.87</ele>
        <time>2013-04-30T13:05:08Z</time>
      </trkpt>
      <trkpt lat="50.08431" lon="1.43145">
        <ele>93.87</ele>
        <time>2013-04-30T13:05:23Z</time>
      </trkpt>
      <trkpt lat="50.08427" lon="1.43153">
        <ele>94.35</ele>
        <time>2013-04-30T13:05:42Z</time>
      </trkpt>
      <trkpt lat="50.08436" lon="1.43155">
        <ele>94.83</ele>
        <time>2013-04-30T13:05:56Z</time>
      </trkpt>
      <trkpt lat="50.08445" lon="1.43151">
        <ele>94.35</ele>
        <time>2013-04-30T13:06:18Z</time>
      </trkpt>
      <trkpt lat="50.08451" lon="1.43151">
        <ele>93.87</ele>
        <time>2013-04-30T13:06:36Z</time>
      </trkpt>
      <trkpt lat="50.08461" lon="1.43152">
        <ele>94.83</ele>
        <time>2013-04-30T13:06:50Z</time>
      </trkpt>
      <trkpt lat="50.08474" lon="1.43155">
        <ele>95.31</ele>
        <time>2013-04-30T13:07:03Z</time>
      </trkpt>
      <trkpt lat="50.08476" lon="1.43156">
        <ele>95.31</ele>
        <time>2013-04-30T13:07:05Z</time>
      </trkpt>
      <trkpt lat="50.08494" lon="1.4316">
        <ele>94.83</ele>
        <time>2013-04-30T13:07:21Z</time>
      </trkpt>
      <trkpt lat="50.08508" lon="1.43167">
        <ele>94.83</ele>
        <time>2013-04-30T13:07:36Z</time>
      </trkpt>
      <trkpt lat="50.08514" lon="1.4317">
        <ele>94.83</ele>
        <time>2013-04-30T13:07:43Z</time>
      </trkpt>
      <trkpt lat="50.08516" lon="1.43172">
        <ele>94.35</ele>
        <time>2013-04-30T13:07:45Z</time>
      </trkpt>
      <trkpt lat="50.08529" lon="1.43179">
        <ele>94.83</ele>
        <time>2013-04-30T13:07:58Z</time>
      </trkpt>
      <trkpt lat="50.08546" lon="1.43189">
        <ele>94.35</ele>
        <time>2013-04-30T13:08:13Z</time>
      </trkpt>
      <trkpt lat="50.08561" lon="1.43187">
        <ele>94.83</ele>
        <time>2013-04-30T13:08:26Z</time>
      </trkpt>
      <trkpt lat="50.08565" lon="1.43187">
        <ele>94.83</ele>
        <time>2013-04-30T13:08:53Z</time>
      </trkpt>
      <trkpt lat="50.0857" lon="1.4318">
        <ele>94.83</ele>
        <time>2013-04-30T13:09:16Z</time>
      </trkpt>
      <trkpt lat="50.08575" lon="1.43172">
        <ele>94.35</ele>
        <time>2013-04-30T13:09:23Z</time>
      </trkpt>
      <trkpt lat="50.08581" lon="1.43158">
        <ele>94.35</ele>
        <time>2013-04-30T13:09:32Z</time>
      </trkpt>
      <trkpt lat="50.08588" lon="1.43144">
        <ele>92.9</ele>
        <time>2013-04-30T13:09:42Z</time>
      </trkpt>
      <trkpt lat="50.08591" lon="1.43135">
        <ele>93.87</ele>
        <time>2013-04-30T13:09:58Z</time>
      </trkpt>
      <trkpt lat="50.08596" lon="1.43113">
        <ele>93.39</ele>
        <time>2013-04-30T13:10:16Z</time>
      </trkpt>
      <trkpt lat="50.08602" lon="1.431">
        <ele>93.39</ele>
        <time>2013-04-30T13:10:33Z</time>
      </trkpt>
      <trkpt lat="50.08602" lon="1.43095">
        <ele>92.9</ele>
        <time>2013-04-30T13:10:45Z</time>
      </trkpt>
      <trkpt lat="50.08613" lon="1.43065">
        <ele>91.94</ele>
        <time>2013-04-30T13:11:06Z</time>
      </trkpt>
      <trkpt lat="50.08609" lon="1.43079">
        <ele>92.9</ele>
        <time>2013-04-30T13:11:20Z</time>
      </trkpt>
      <trkpt lat="50.08596" lon="1.431">
        <ele>92.9</ele>
        <time>2013-04-30T13:11:43Z</time>
      </trkpt>
      <trkpt lat="50.08595" lon="1.43112">
        <ele>93.39</ele>
        <time>2013-04-30T13:12:07Z</time>
      </trkpt>
      <trkpt lat="50.08606" lon="1.43092">
        <ele>92.42</ele>
        <time>2013-04-30T13:12:28Z</time>
      </trkpt>
      <trkpt lat="50.08612" lon="1.43076">
        <ele>92.42</ele>
        <time>2013-04-30T13:12:42Z</time>
      </trkpt>
      <trkpt lat="50.08619" lon="1.43062">
        <ele>91.46</ele>
        <time>2013-04-30T13:12:57Z</time>
      </trkpt>
      <trkpt lat="50.08629" lon="1.43039">
        <ele>90.5</ele>
        <time>2013-04-30T13:13:14Z</time>
      </trkpt>
      <trkpt lat="50.08639" lon="1.4301">
        <ele>88.1</ele>
        <time>2013-04-30T13:13:33Z</time>
      </trkpt>
      <trkpt lat="50.08641" lon="1.4301">
        <ele>88.1</ele>
        <time>2013-04-30T13:13:36Z</time>
      </trkpt>
      <trkpt lat="50.08656" lon="1.42983">
        <ele>86.18</ele>
        <time>2013-04-30T13:13:56Z</time>
      </trkpt>
      <trkpt lat="50.08668" lon="1.42964">
        <ele>84.25</ele>
        <time>2013-04-30T13:14:12Z</time>
      </trkpt>
      <trkpt lat="50.08677" lon="1.42944">
        <ele>81.85</ele>
        <time>2013-04-30T13:14:30Z</time>
      </trkpt>
      <trkpt lat="50.08686" lon="1.42929">
        <ele>81.37</ele>
        <time>2013-04-30T13:14:46Z</time>
      </trkpt>
      <trkpt lat="50.08698" lon="1.4291">
        <ele>80.89</ele>
        <time>2013-04-30T13:15:05Z</time>
      </trkpt>
      <trkpt lat="50.0872" lon="1.42887">
        <ele>79.45</ele>
        <time>2013-04-30T13:15:26Z</time>
      </trkpt>
      <trkpt lat="50.08741" lon="1.42866">
        <ele>78.48</ele>
        <time>2013-04-30T13:15:46Z</time>
      </trkpt>
      <trkpt lat="50.0876" lon="1.42844">
        <ele>77.04</ele>
        <time>2013-04-30T13:16:06Z</time>
      </trkpt>
      <trkpt lat="50.0878" lon="1.42827">
        <ele>77.52</ele>
        <time>2013-04-30T13:16:21Z</time>
      </trkpt>
      <trkpt lat="50.08791" lon="1.42819">
        <ele>76.08</ele>
        <time>2013-04-30T13:16:31Z</time>
      </trkpt>
      <trkpt lat="50.08797" lon="1.42814">
        <ele>75.6</ele>
        <time>2013-04-30T13:16:38Z</time>
      </trkpt>
      <trkpt lat="50.08802" lon="1.42819">
        <ele>77.04</ele>
        <time>2013-04-30T13:16:54Z</time>
      </trkpt>
      <trkpt lat="50.08793" lon="1.42833">
        <ele>78.48</ele>
        <time>2013-04-30T13:17:06Z</time>
      </trkpt>
      <trkpt lat="50.08782" lon="1.42862">
        <ele>80.89</ele>
        <time>2013-04-30T13:17:25Z</time>
      </trkpt>
      <trkpt lat="50.0878" lon="1.42874">
        <ele>83.29</ele>
        <time>2013-04-30T13:17:35Z</time>
      </trkpt>
      <trkpt lat="50.08787" lon="1.42899">
        <ele>84.73</ele>
        <time>2013-04-30T13:17:53Z</time>
      </trkpt>
      <trkpt lat="50.08796" lon="1.42924">
        <ele>87.14</ele>
        <time>2013-04-30T13:18:09Z</time>
      </trkpt>
      <trkpt lat="50.08802" lon="1.42933">
        <ele>87.62</ele>
        <time>2013-04-30T13:18:16Z</time>
      </trkpt>
      <trkpt lat="50.08812" lon="1.42959">
        <ele>87.14</ele>
        <time>2013-04-30T13:18:31Z</time>
      </trkpt>
      <trkpt lat="50.08818" lon="1.42983">
        <ele>88.1</ele>
        <time>2013-04-30T13:18:47Z</time>
      </trkpt>
      <trkpt lat="50.08821" lon="1.42993">
        <ele>87.62</ele>
        <time>2013-04-30T13:18:52Z</time>
      </trkpt>
      <trkpt lat="50.08822" lon="1.42994">
        <ele>88.1</ele>
        <time>2013-04-30T13:18:53Z</time>
      </trkpt>
      <trkpt lat="50.08823" lon="1.42996">
        <ele>88.1</ele>
        <time>2013-04-30T13:18:54Z</time>
      </trkpt>
      <trkpt lat="50.08832" lon="1.43018">
        <ele>88.1</ele>
        <time>2013-04-30T13:19:08Z</time>
      </trkpt>
      <trkpt lat="50.08841" lon="1.43045">
        <ele>86.66</ele>
        <time>2013-04-30T13:19:26Z</time>
      </trkpt>
      <trkpt lat="50.08847" lon="1.4306">
        <ele>88.1</ele>
        <time>2013-04-30T13:19:37Z</time>
      </trkpt>
      <trkpt lat="50.08847" lon="1.43062">
        <ele>86.66</ele>
        <time>2013-04-30T13:19:38Z</time>
      </trkpt>
      <trkpt lat="50.08847" lon="1.43063">
        <ele>86.18</ele>
        <time>2013-04-30T13:19:39Z</time>
      </trkpt>
      <trkpt lat="50.08848" lon="1.43065">
        <ele>86.18</ele>
        <time>2013-04-30T13:19:40Z</time>
      </trkpt>
      <trkpt lat="50.08849" lon="1.43067">
        <ele>86.18</ele>
        <time>2013-04-30T13:19:41Z</time>
      </trkpt>
      <trkpt lat="50.08849" lon="1.43069">
        <ele>86.18</ele>
        <time>2013-04-30T13:19:42Z</time>
      </trkpt>
      <trkpt lat="50.0885" lon="1.4307">
        <ele>86.18</ele>
        <time>2013-04-30T13:19:43Z</time>
      </trkpt>
      <trkpt lat="50.08851" lon="1.43071">
        <ele>86.18</ele>
        <time>2013-04-30T13:19:44Z</time>
      </trkpt>
      <trkpt lat="50.0886" lon="1.43093">
        <ele>88.58</ele>
        <time>2013-04-30T13:19:58Z</time>
      </trkpt>
      <trkpt lat="50.08864" lon="1.43107">
        <ele>84.73</ele>
        <time>2013-04-30T13:20:06Z</time>
      </trkpt>
      <trkpt lat="50.08864" lon="1.43109">
        <ele>85.21</ele>
        <time>2013-04-30T13:20:07Z</time>
      </trkpt>
      <trkpt lat="50.08866" lon="1.43112">
        <ele>88.1</ele>
        <time>2013-04-30T13:20:09Z</time>
      </trkpt>
      <trkpt lat="50.08867" lon="1.43114">
        <ele>88.1</ele>
        <time>2013-04-30T13:20:10Z</time>
      </trkpt>
      <trkpt lat="50.08878" lon="1.43136">
        <ele>89.06</ele>
        <time>2013-04-30T13:20:24Z</time>
      </trkpt>
      <trkpt lat="50.08884" lon="1.43156">
        <ele>86.18</ele>
        <time>2013-04-30T13:20:38Z</time>
      </trkpt>
      <trkpt lat="50.08903" lon="1.43202">
        <ele>88.58</ele>
        <time>2013-04-30T13:21:06Z</time>
      </trkpt>
      <trkpt lat="50.08919" lon="1.43239">
        <ele>86.66</ele>
        <time>2013-04-30T13:21:28Z</time>
      </trkpt>
      <trkpt lat="50.08922" lon="1.43252">
        <ele>84.73</ele>
        <time>2013-04-30T13:21:34Z</time>
      </trkpt>
      <trkpt lat="50.08933" lon="1.4328">
        <ele>86.18</ele>
        <time>2013-04-30T13:21:52Z</time>
      </trkpt>
      <trkpt lat="50.08943" lon="1.43303">
        <ele>86.66</ele>
        <time>2013-04-30T13:22:06Z</time>
      </trkpt>
      <trkpt lat="50.08955" lon="1.43334">
        <ele>86.66</ele>
        <time>2013-04-30T13:22:24Z</time>
      </trkpt>
      <trkpt lat="50.08962" lon="1.43354">
        <ele>85.21</ele>
        <time>2013-04-30T13:22:35Z</time>
      </trkpt>
      <trkpt lat="50.08973" lon="1.43386">
        <ele>85.21</ele>
        <time>2013-04-30T13:22:54Z</time>
      </trkpt>
      <trkpt lat="50.08979" lon="1.43397">
        <ele>86.18</ele>
        <time>2013-04-30T13:23:01Z</time>
      </trkpt>
      <trkpt lat="50.08981" lon="1.43405">
        <ele>84.73</ele>
        <time>2013-04-30T13:23:06Z</time>
      </trkpt>
      <trkpt lat="50.08992" lon="1.43431">
        <ele>85.21</ele>
        <time>2013-04-30T13:23:22Z</time>
      </trkpt>
      <trkpt lat="50.08999" lon="1.43449">
        <ele>86.18</ele>
        <time>2013-04-30T13:23:33Z</time>
      </trkpt>
      <trkpt lat="50.09014" lon="1.43483">
        <ele>84.73</ele>
        <time>2013-04-30T13:23:54Z</time>
      </trkpt>
      <trkpt lat="50.09027" lon="1.43522">
        <ele>82.81</ele>
        <time>2013-04-30T13:24:15Z</time>
      </trkpt>
      <trkpt lat="50.09039" lon="1.43554">
        <ele>83.29</ele>
        <time>2013-04-30T13:24:35Z</time>
      </trkpt>
      <trkpt lat="50.09055" lon="1.43587">
        <ele>83.77</ele>
        <time>2013-04-30T13:24:56Z</time>
      </trkpt>
      <trkpt lat="50.09073" lon="1.43623">
        <ele>84.25</ele>
        <time>2013-04-30T13:25:19Z</time>
      </trkpt>
      <trkpt lat="50.09088" lon="1.43658">
        <ele>84.73</ele>
        <time>2013-04-30T13:25:41Z</time>
      </trkpt>
      <trkpt lat="50.09106" lon="1.43689">
        <ele>85.69</ele>
        <time>2013-04-30T13:26:03Z</time>
      </trkpt>
      <trkpt lat="50.09122" lon="1.43718">
        <ele>86.18</ele>
        <time>2013-04-30T13:26:22Z</time>
      </trkpt>
      <trkpt lat="50.09123" lon="1.4372">
        <ele>86.18</ele>
        <time>2013-04-30T13:26:23Z</time>
      </trkpt>
      <trkpt lat="50.09124" lon="1.43722">
        <ele>86.18</ele>
        <time>2013-04-30T13:26:24Z</time>
      </trkpt>
      <trkpt lat="50.09131" lon="1.43735">
        <ele>84.25</ele>
        <time>2013-04-30T13:26:34Z</time>
      </trkpt>
      <trkpt lat="50.09133" lon="1.43739">
        <ele>86.66</ele>
        <time>2013-04-30T13:26:37Z</time>
      </trkpt>
      <trkpt lat="50.09137" lon="1.43752">
        <ele>83.77</ele>
        <time>2013-04-30T13:26:44Z</time>
      </trkpt>
      <trkpt lat="50.09141" lon="1.43762">
        <ele>85.69</ele>
        <time>2013-04-30T13:26:51Z</time>
      </trkpt>
      <trkpt lat="50.09146" lon="1.43778">
        <ele>85.69</ele>
        <time>2013-04-30T13:27:02Z</time>
      </trkpt>
      <trkpt lat="50.09148" lon="1.43786">
        <ele>84.73</ele>
        <time>2013-04-30T13:27:07Z</time>
      </trkpt>
      <trkpt lat="50.09152" lon="1.43795">
        <ele>86.18</ele>
        <time>2013-04-30T13:27:14Z</time>
      </trkpt>
      <trkpt lat="50.09157" lon="1.43803">
        <ele>86.18</ele>
        <time>2013-04-30T13:27:22Z</time>
      </trkpt>
      <trkpt lat="50.09166" lon="1.43835">
        <ele>85.21</ele>
        <time>2013-04-30T13:27:41Z</time>
      </trkpt>
      <trkpt lat="50.09172" lon="1.4386">
        <ele>86.18</ele>
        <time>2013-04-30T13:27:57Z</time>
      </trkpt>
      <trkpt lat="50.0918" lon="1.43878">
        <ele>85.21</ele>
        <time>2013-04-30T13:28:12Z</time>
      </trkpt>
      <trkpt lat="50.09185" lon="1.43904">
        <ele>85.69</ele>
        <time>2013-04-30T13:28:31Z</time>
      </trkpt>
      <trkpt lat="50.09197" lon="1.43948">
        <ele>86.18</ele>
        <time>2013-04-30T13:28:55Z</time>
      </trkpt>
      <trkpt lat="50.09208" lon="1.43992">
        <ele>86.18</ele>
        <time>2013-04-30T13:29:21Z</time>
      </trkpt>
      <trkpt lat="50.09219" lon="1.44031">
        <ele>86.18</ele>
        <time>2013-04-30T13:29:47Z</time>
      </trkpt>
      <trkpt lat="50.09235" lon="1.44081">
        <ele>86.18</ele>
        <time>2013-04-30T13:30:14Z</time>
      </trkpt>
      <trkpt lat="50.09249" lon="1.44126">
        <ele>86.66</ele>
        <time>2013-04-30T13:30:41Z</time>
      </trkpt>
      <trkpt lat="50.09266" lon="1.44171">
        <ele>87.14</ele>
        <time>2013-04-30T13:31:07Z</time>
      </trkpt>
      <trkpt lat="50.09272" lon="1.44223">
        <ele>86.66</ele>
        <time>2013-04-30T13:31:32Z</time>
      </trkpt>
      <trkpt lat="50.09281" lon="1.44256">
        <ele>87.14</ele>
        <time>2013-04-30T13:31:52Z</time>
      </trkpt>
      <trkpt lat="50.09281" lon="1.44258">
        <ele>87.62</ele>
        <time>2013-04-30T13:31:53Z</time>
      </trkpt>
      <trkpt lat="50.09282" lon="1.44261">
        <ele>87.14</ele>
        <time>2013-04-30T13:31:54Z</time>
      </trkpt>
      <trkpt lat="50.09289" lon="1.443">
        <ele>87.62</ele>
        <time>2013-04-30T13:32:17Z</time>
      </trkpt>
      <trkpt lat="50.09301" lon="1.44353">
        <ele>87.62</ele>
        <time>2013-04-30T13:32:45Z</time>
      </trkpt>
      <trkpt lat="50.0931" lon="1.4438">
        <ele>87.62</ele>
        <time>2013-04-30T13:33:02Z</time>
      </trkpt>
      <trkpt lat="50.09311" lon="1.44385">
        <ele>86.66</ele>
        <time>2013-04-30T13:33:06Z</time>
      </trkpt>
      <trkpt lat="50.09311" lon="1.44387">
        <ele>86.66</ele>
        <time>2013-04-30T13:33:07Z</time>
      </trkpt>
      <trkpt lat="50.09317" lon="1.44419">
        <ele>86.18</ele>
        <time>2013-04-30T13:33:22Z</time>
      </trkpt>
      <trkpt lat="50.0932" lon="1.44443">
        <ele>86.18</ele>
        <time>2013-04-30T13:33:40Z</time>
      </trkpt>
      <trkpt lat="50.09325" lon="1.44463">
        <ele>86.18</ele>
        <time>2013-04-30T13:33:53Z</time>
      </trkpt>
      <trkpt lat="50.09328" lon="1.44494">
        <ele>85.21</ele>
        <time>2013-04-30T13:34:09Z</time>
      </trkpt>
      <trkpt lat="50.09334" lon="1.44523">
        <ele>84.25</ele>
        <time>2013-04-30T13:34:24Z</time>
      </trkpt>
      <trkpt lat="50.0934" lon="1.44559">
        <ele>83.77</ele>
        <time>2013-04-30T13:34:44Z</time>
      </trkpt>
      <trkpt lat="50.09346" lon="1.44597">
        <ele>82.81</ele>
        <time>2013-04-30T13:35:03Z</time>
      </trkpt>
      <trkpt lat="50.09359" lon="1.4463">
        <ele>82.81</ele>
        <time>2013-04-30T13:35:24Z</time>
      </trkpt>
      <trkpt lat="50.09374" lon="1.44655">
        <ele>82.33</ele>
        <time>2013-04-30T13:35:43Z</time>
      </trkpt>
      <trkpt lat="50.09391" lon="1.44674">
        <ele>81.37</ele>
        <time>2013-04-30T13:35:59Z</time>
      </trkpt>
      <trkpt lat="50.09395" lon="1.44679">
        <ele>80.89</ele>
        <time>2013-04-30T13:36:04Z</time>
      </trkpt>
      <trkpt lat="50.09396" lon="1.4468">
        <ele>80.89</ele>
        <time>2013-04-30T13:36:05Z</time>
      </trkpt>
      <trkpt lat="50.09397" lon="1.44681">
        <ele>80.89</ele>
        <time>2013-04-30T13:36:06Z</time>
      </trkpt>
      <trkpt lat="50.09415" lon="1.44697">
        <ele>79.93</ele>
        <time>2013-04-30T13:36:22Z</time>
      </trkpt>
      <trkpt lat="50.09436" lon="1.44717">
        <ele>78</ele>
        <time>2013-04-30T13:36:42Z</time>
      </trkpt>
      <trkpt lat="50.09456" lon="1.44732">
        <ele>77.04</ele>
        <time>2013-04-30T13:37:01Z</time>
      </trkpt>
      <trkpt lat="50.09477" lon="1.4475">
        <ele>75.12</ele>
        <time>2013-04-30T13:37:22Z</time>
      </trkpt>
      <trkpt lat="50.09493" lon="1.44764">
        <ele>71.76</ele>
        <time>2013-04-30T13:37:37Z</time>
      </trkpt>
      <trkpt lat="50.095" lon="1.44761">
        <ele>72.24</ele>
        <time>2013-04-30T13:37:53Z</time>
      </trkpt>
      <trkpt lat="50.09503" lon="1.44764">
        <ele>71.27</ele>
        <time>2013-04-30T13:38:14Z</time>
      </trkpt>
      <trkpt lat="50.09521" lon="1.44777">
        <ele>68.87</ele>
        <time>2013-04-30T13:38:32Z</time>
      </trkpt>
      <trkpt lat="50.09527" lon="1.44785">
        <ele>67.91</ele>
        <time>2013-04-30T13:38:40Z</time>
      </trkpt>
      <trkpt lat="50.09543" lon="1.44812">
        <ele>65.99</ele>
        <time>2013-04-30T13:38:59Z</time>
      </trkpt>
      <trkpt lat="50.09549" lon="1.44823">
        <ele>65.03</ele>
        <time>2013-04-30T13:39:16Z</time>
      </trkpt>
      <trkpt lat="50.09559" lon="1.44827">
        <ele>63.1</ele>
        <time>2013-04-30T13:39:30Z</time>
      </trkpt>
      <trkpt lat="50.09576" lon="1.44831">
        <ele>62.62</ele>
        <time>2013-04-30T13:39:48Z</time>
      </trkpt>
      <trkpt lat="50.09579" lon="1.44834">
        <ele>61.18</ele>
        <time>2013-04-30T13:39:52Z</time>
      </trkpt>
      <trkpt lat="50.09595" lon="1.44843">
        <ele>59.74</ele>
        <time>2013-04-30T13:40:11Z</time>
      </trkpt>
      <trkpt lat="50.096" lon="1.44841">
        <ele>58.3</ele>
        <time>2013-04-30T13:40:18Z</time>
      </trkpt>
      <trkpt lat="50.09605" lon="1.44842">
        <ele>57.34</ele>
        <time>2013-04-30T13:40:22Z</time>
      </trkpt>
      <trkpt lat="50.09614" lon="1.44843">
        <ele>56.37</ele>
        <time>2013-04-30T13:40:31Z</time>
      </trkpt>
      <trkpt lat="50.09626" lon="1.44849">
        <ele>55.41</ele>
        <time>2013-04-30T13:40:47Z</time>
      </trkpt>
      <trkpt lat="50.0963" lon="1.4485">
        <ele>55.41</ele>
        <time>2013-04-30T13:41:08Z</time>
      </trkpt>
      <trkpt lat="50.09631" lon="1.44847">
        <ele>54.93</ele>
        <time>2013-04-30T13:41:35Z</time>
      </trkpt>
      <trkpt lat="50.09637" lon="1.44853">
        <ele>54.45</ele>
        <time>2013-04-30T13:41:57Z</time>
      </trkpt>
      <trkpt lat="50.09651" lon="1.44857">
        <ele>52.05</ele>
        <time>2013-04-30T13:42:11Z</time>
      </trkpt>
      <trkpt lat="50.09673" lon="1.44862">
        <ele>49.16</ele>
        <time>2013-04-30T13:42:28Z</time>
      </trkpt>
      <trkpt lat="50.09688" lon="1.4486">
        <ele>48.68</ele>
        <time>2013-04-30T13:42:42Z</time>
      </trkpt>
      <trkpt lat="50.0971" lon="1.44855">
        <ele>46.28</ele>
        <time>2013-04-30T13:43:01Z</time>
      </trkpt>
      <trkpt lat="50.09721" lon="1.44851">
        <ele>45.32</ele>
        <time>2013-04-30T13:43:14Z</time>
      </trkpt>
      <trkpt lat="50.09734" lon="1.44849">
        <ele>44.36</ele>
        <time>2013-04-30T13:43:27Z</time>
      </trkpt>
      <trkpt lat="50.09752" lon="1.44846">
        <ele>41.95</ele>
        <time>2013-04-30T13:43:43Z</time>
      </trkpt>
      <trkpt lat="50.09772" lon="1.44842">
        <ele>39.55</ele>
        <time>2013-04-30T13:44:00Z</time>
      </trkpt>
      <trkpt lat="50.09793" lon="1.44831">
        <ele>38.59</ele>
        <time>2013-04-30T13:44:20Z</time>
      </trkpt>
      <trkpt lat="50.09802" lon="1.44827">
        <ele>37.63</ele>
        <time>2013-04-30T13:44:28Z</time>
      </trkpt>
      <trkpt lat="50.09825" lon="1.44821">
        <ele>36.67</ele>
        <time>2013-04-30T13:44:47Z</time>
      </trkpt>
      <trkpt lat="50.09826" lon="1.44821">
        <ele>36.19</ele>
        <time>2013-04-30T13:44:48Z</time>
      </trkpt>
      <trkpt lat="50.09842" lon="1.44822">
        <ele>33.78</ele>
        <time>2013-04-30T13:45:01Z</time>
      </trkpt>
      <trkpt lat="50.0985" lon="1.44823">
        <ele>35.71</ele>
        <time>2013-04-30T13:45:07Z</time>
      </trkpt>
      <trkpt lat="50.09857" lon="1.44827">
        <ele>34.74</ele>
        <time>2013-04-30T13:45:16Z</time>
      </trkpt>
      <trkpt lat="50.09861" lon="1.44832">
        <ele>34.74</ele>
        <time>2013-04-30T13:45:20Z</time>
      </trkpt>
      <trkpt lat="50.09862" lon="1.44832">
        <ele>34.74</ele>
        <time>2013-04-30T13:45:21Z</time>
      </trkpt>
      <trkpt lat="50.09863" lon="1.44832">
        <ele>34.74</ele>
        <time>2013-04-30T13:45:22Z</time>
      </trkpt>
      <trkpt lat="50.09878" lon="1.44821">
        <ele>34.74</ele>
        <time>2013-04-30T13:45:43Z</time>
      </trkpt>
      <trkpt lat="50.09877" lon="1.44812">
        <ele>34.26</ele>
        <time>2013-04-30T13:46:01Z</time>
      </trkpt>
      <trkpt lat="50.09905" lon="1.44793">
        <ele>32.82</ele>
        <time>2013-04-30T13:46:18Z</time>
      </trkpt>
      <trkpt lat="50.09925" lon="1.4478">
        <ele>31.86</ele>
        <time>2013-04-30T13:46:36Z</time>
      </trkpt>
      <trkpt lat="50.09932" lon="1.44778">
        <ele>31.38</ele>
        <time>2013-04-30T13:46:42Z</time>
      </trkpt>
      <trkpt lat="50.09938" lon="1.44767">
        <ele>30.42</ele>
        <time>2013-04-30T13:46:55Z</time>
      </trkpt>
      <trkpt lat="50.09943" lon="1.44772">
        <ele>30.42</ele>
        <time>2013-04-30T13:47:12Z</time>
      </trkpt>
      <trkpt lat="50.09947" lon="1.44783">
        <ele>29.94</ele>
        <time>2013-04-30T13:47:35Z</time>
      </trkpt>
      <trkpt lat="50.09954" lon="1.44813">
        <ele>28.5</ele>
        <time>2013-04-30T13:47:53Z</time>
      </trkpt>
      <trkpt lat="50.09956" lon="1.44818">
        <ele>28.98</ele>
        <time>2013-04-30T13:48:01Z</time>
      </trkpt>
      <trkpt lat="50.09961" lon="1.44817">
        <ele>28.98</ele>
        <time>2013-04-30T13:48:07Z</time>
      </trkpt>
      <trkpt lat="50.09978" lon="1.44804">
        <ele>28.02</ele>
        <time>2013-04-30T13:48:30Z</time>
      </trkpt>
      <trkpt lat="50.09982" lon="1.44801">
        <ele>28.02</ele>
        <time>2013-04-30T13:48:35Z</time>
      </trkpt>
      <trkpt lat="50.09984" lon="1.448">
        <ele>28.02</ele>
        <time>2013-04-30T13:48:37Z</time>
      </trkpt>
      <trkpt lat="50.09986" lon="1.44799">
        <ele>28.02</ele>
        <time>2013-04-30T13:48:38Z</time>
      </trkpt>
      <trkpt lat="50.09987" lon="1.44799">
        <ele>27.53</ele>
        <time>2013-04-30T13:48:39Z</time>
      </trkpt>
      <trkpt lat="50.09988" lon="1.44799">
        <ele>27.53</ele>
        <time>2013-04-30T13:48:40Z</time>
      </trkpt>
      <trkpt lat="50.09989" lon="1.44799">
        <ele>27.53</ele>
        <time>2013-04-30T13:48:41Z</time>
      </trkpt>
      <trkpt lat="50.10049" lon="1.44781">
        <ele>26.09</ele>
        <time>2013-04-30T13:49:43Z</time>
      </trkpt>
      <trkpt lat="50.10056" lon="1.44781">
        <ele>26.57</ele>
        <time>2013-04-30T13:49:53Z</time>
      </trkpt>
      <trkpt lat="50.10063" lon="1.44789">
        <ele>26.57</ele>
        <time>2013-04-30T13:50:01Z</time>
      </trkpt>
      <trkpt lat="50.10073" lon="1.44793">
        <ele>27.05</ele>
        <time>2013-04-30T13:50:20Z</time>
      </trkpt>
      <trkpt lat="50.1008" lon="1.448">
        <ele>27.53</ele>
        <time>2013-04-30T13:50:42Z</time>
      </trkpt>
      <trkpt lat="50.10091" lon="1.44815">
        <ele>27.05</ele>
        <time>2013-04-30T13:51:03Z</time>
      </trkpt>
      <trkpt lat="50.10094" lon="1.44814">
        <ele>27.05</ele>
        <time>2013-04-30T13:51:24Z</time>
      </trkpt>
      <trkpt lat="50.10079" lon="1.44817">
        <ele>27.53</ele>
        <time>2013-04-30T13:51:48Z</time>
      </trkpt>
      <trkpt lat="50.10077" lon="1.44817">
        <ele>28.98</ele>
        <time>2013-04-30T13:51:52Z</time>
      </trkpt>
      <trkpt lat="50.10082" lon="1.44833">
        <ele>28.5</ele>
        <time>2013-04-30T13:52:08Z</time>
      </trkpt>
      <trkpt lat="50.10086" lon="1.44821">
        <ele>28.02</ele>
        <time>2013-04-30T13:52:24Z</time>
      </trkpt>
      <trkpt lat="50.10081" lon="1.44811">
        <ele>28.98</ele>
        <time>2013-04-30T13:52:38Z</time>
      </trkpt>
      <trkpt lat="50.10078" lon="1.44817">
        <ele>29.94</ele>
        <time>2013-04-30T13:52:54Z</time>
      </trkpt>
      <trkpt lat="50.10081" lon="1.44811">
        <ele>29.94</ele>
        <time>2013-04-30T13:53:08Z</time>
      </trkpt>
      <trkpt lat="50.10078" lon="1.44821">
        <ele>28.98</ele>
        <time>2013-04-30T13:53:28Z</time>
      </trkpt>
      <trkpt lat="50.10082" lon="1.44814">
        <ele>29.46</ele>
        <time>2013-04-30T13:53:54Z</time>
      </trkpt>
      <trkpt lat="50.10088" lon="1.4481">
        <ele>29.94</ele>
        <time>2013-04-30T13:54:01Z</time>
      </trkpt>
      <trkpt lat="50.10089" lon="1.44812">
        <ele>29.46</ele>
        <time>2013-04-30T13:54:15Z</time>
      </trkpt>
      <trkpt lat="50.10079" lon="1.44809">
        <ele>29.94</ele>
        <time>2013-04-30T13:54:39Z</time>
      </trkpt>
      <trkpt lat="50.1008" lon="1.44817">
        <ele>29.94</ele>
        <time>2013-04-30T13:54:53Z</time>
      </trkpt>
      <trkpt lat="50.10079" lon="1.44817">
        <ele>29.94</ele>
        <time>2013-04-30T13:55:20Z</time>
      </trkpt>
      <trkpt lat="50.10075" lon="1.44813">
        <ele>29.46</ele>
        <time>2013-04-30T13:55:42Z</time>
      </trkpt>
      <trkpt lat="50.10076" lon="1.44809">
        <ele>29.94</ele>
        <time>2013-04-30T13:56:03Z</time>
      </trkpt>
      <trkpt lat="50.10078" lon="1.44802">
        <ele>29.46</ele>
        <time>2013-04-30T13:56:21Z</time>
      </trkpt>
      <trkpt lat="50.1008" lon="1.44796">
        <ele>27.53</ele>
        <time>2013-04-30T13:56:36Z</time>
      </trkpt>
      <trkpt lat="50.10087" lon="1.44799">
        <ele>26.57</ele>
        <time>2013-04-30T13:56:51Z</time>
      </trkpt>
      <trkpt lat="50.10094" lon="1.44797">
        <ele>27.05</ele>
        <time>2013-04-30T13:57:18Z</time>
      </trkpt>
      <trkpt lat="50.10089" lon="1.44788">
        <ele>27.05</ele>
        <time>2013-04-30T13:57:44Z</time>
      </trkpt>
      <trkpt lat="50.10092" lon="1.44785">
        <ele>27.53</ele>
        <time>2013-04-30T13:57:58Z</time>
      </trkpt>
      <trkpt lat="50.10081" lon="1.44798">
        <ele>26.57</ele>
        <time>2013-04-30T13:58:12Z</time>
      </trkpt>
      <trkpt lat="50.1009" lon="1.44776">
        <ele>26.57</ele>
        <time>2013-04-30T13:58:26Z</time>
      </trkpt>
      <trkpt lat="50.10096" lon="1.44753">
        <ele>24.17</ele>
        <time>2013-04-30T13:58:42Z</time>
      </trkpt>
      <trkpt lat="50.10103" lon="1.44761">
        <ele>24.17</ele>
        <time>2013-04-30T13:58:51Z</time>
      </trkpt>
      <trkpt lat="50.10102" lon="1.44777">
        <ele>25.13</ele>
        <time>2013-04-30T13:59:06Z</time>
      </trkpt>
      <trkpt lat="50.10105" lon="1.44769">
        <ele>24.65</ele>
        <time>2013-04-30T13:59:24Z</time>
      </trkpt>
      <trkpt lat="50.10108" lon="1.44752">
        <ele>26.57</ele>
        <time>2013-04-30T13:59:37Z</time>
      </trkpt>
      <trkpt lat="50.10109" lon="1.4475">
        <ele>26.09</ele>
        <time>2013-04-30T13:59:38Z</time>
      </trkpt>
      <trkpt lat="50.10111" lon="1.4474">
        <ele>24.17</ele>
        <time>2013-04-30T13:59:44Z</time>
      </trkpt>
      <trkpt lat="50.10114" lon="1.44741">
        <ele>24.17</ele>
        <time>2013-04-30T13:59:59Z</time>
      </trkpt>
      <trkpt lat="50.10112" lon="1.44731">
        <ele>24.17</ele>
        <time>2013-04-30T14:00:29Z</time>
      </trkpt>
      <trkpt lat="50.10112" lon="1.44734">
        <ele>24.65</ele>
        <time>2013-04-30T14:00:47Z</time>
      </trkpt>
      <trkpt lat="50.10109" lon="1.44729">
        <ele>24.65</ele>
        <time>2013-04-30T14:01:05Z</time>
      </trkpt>
      <trkpt lat="50.10111" lon="1.44736">
        <ele>24.65</ele>
        <time>2013-04-30T14:01:30Z</time>
      </trkpt>
      <trkpt lat="50.10109" lon="1.44742">
        <ele>25.13</ele>
        <time>2013-04-30T14:01:56Z</time>
      </trkpt>
      <trkpt lat="50.10113" lon="1.44729">
        <ele>24.17</ele>
        <time>2013-04-30T14:02:12Z</time>
      </trkpt>
      <trkpt lat="50.10117" lon="1.44729">
        <ele>23.69</ele>
        <time>2013-04-30T14:02:33Z</time>
      </trkpt>
      <trkpt lat="50.10123" lon="1.44709">
        <ele>23.69</ele>
        <time>2013-04-30T14:02:53Z</time>
      </trkpt>
      <trkpt lat="50.10136" lon="1.44675">
        <ele>23.21</ele>
        <time>2013-04-30T14:03:19Z</time>
      </trkpt>
      <trkpt lat="50.10121" lon="1.44642">
        <ele>23.21</ele>
        <time>2013-04-30T14:03:39Z</time>
      </trkpt>
      <trkpt lat="50.10118" lon="1.44635">
        <ele>23.69</ele>
        <time>2013-04-30T14:03:44Z</time>
      </trkpt>
      <trkpt lat="50.10119" lon="1.44614">
        <ele>23.69</ele>
        <time>2013-04-30T14:04:09Z</time>
      </trkpt>
      <trkpt lat="50.10118" lon="1.44614">
        <ele>23.69</ele>
        <time>2013-04-30T14:04:21Z</time>
      </trkpt>
      <trkpt lat="50.10145" lon="1.44647">
        <ele>23.69</ele>
        <time>2013-04-30T14:04:47Z</time>
      </trkpt>
      <trkpt lat="50.10153" lon="1.44642">
        <ele>24.17</ele>
        <time>2013-04-30T14:04:54Z</time>
      </trkpt>
      <trkpt lat="50.10165" lon="1.4463">
        <ele>23.69</ele>
        <time>2013-04-30T14:05:09Z</time>
      </trkpt>
      <trkpt lat="50.10168" lon="1.44623">
        <ele>23.69</ele>
        <time>2013-04-30T14:05:15Z</time>
      </trkpt>
      <trkpt lat="50.10169" lon="1.4462">
        <ele>23.69</ele>
        <time>2013-04-30T14:05:17Z</time>
      </trkpt>
      <trkpt lat="50.10177" lon="1.44602">
        <ele>23.21</ele>
        <time>2013-04-30T14:05:33Z</time>
      </trkpt>
      <trkpt lat="50.10179" lon="1.44593">
        <ele>23.21</ele>
        <time>2013-04-30T14:05:46Z</time>
      </trkpt>
      <trkpt lat="50.10183" lon="1.44583">
        <ele>23.21</ele>
        <time>2013-04-30T14:06:00Z</time>
      </trkpt>
    </trkseg>
  </trk>
</gpx>